OPDR Tanger — 5BAH2 — position and weather

sailwx.info

Track history (hours):
 
Tides and Currents Weather Stations Pressure Air Temp Water Temp Dewpoint Dewpoint Depression Visibility Wind Speed Wind Dir Waves Ship Positions

OPDR Tanger

Last reported at 2017-Dec-03 07:53 UTC. Time now 2017-Dec-13 18:58 UTC.
Position N 43°16' E 005°10'.
Warning: this ship's position is 10 days out of date.

Length 130 m; draft 5.4 m.

Type: Ship (hazmat cat A). MMSI: 212818000.

Date/timePositionNaut miles runAvg speedWind from/ knotsBaromVisibWave heightAir tempDewpointWater temp
2017-Dec-03 07:53N 43°16' E 005°10'9 0.2
2017-Dec-01 17:52N 43°21' E 005°20'2 5.2
2017-Dec-01 17:28N 43°21' E 005°17'0 0.2
2017-Dec-01 15:28N 43°21' E 005°17'3 5.2
2017-Dec-01 14:58N 43°19' E 005°14'710.9
2017-Dec-01 14:18N 43°13' E 005°10'440 9.3
2017-Nov-29 14:46N 37°25' W 000°43'413.7
2017-Nov-29 14:30N 37°22' W 000°47'  
2017-Nov-26 00:19N 36°32' W 008°60'11911.7
2017-Nov-25 14:05N 38°22' W 009°59'513.3
2017-Nov-25 13:42N 38°26' W 010°01'179 4.6
2017-Nov-23 23:09N 41°17' W 008°52'315.1
2017-Nov-23 22:58N 41°14' W 008°50'613.4
2017-Nov-23 22:31N 41°10' W 008°45'3 4.7
2017-Nov-23 21:58N 41°11' W 008°42'0 0.0
2017-Nov-23 21:28N 41°11' W 008°42'0 0.0
2017-Nov-23 20:58N 41°11' W 008°42'0 0.0
2017-Nov-23 20:28N 41°11' W 008°42'0 0.0
2017-Nov-23 19:58N 41°11' W 008°42'0 0.0
2017-Nov-23 19:28N 41°11' W 008°42'0 0.0
2017-Nov-23 18:58N 41°11' W 008°42'0 0.0
2017-Nov-23 18:28N 41°11' W 008°42'0 0.0
2017-Nov-23 17:58N 41°11' W 008°42'0 0.0
2017-Nov-23 17:28N 41°11' W 008°42'0 0.0
2017-Nov-23 17:01N 41°11' W 008°42'0 0.0
2017-Nov-23 16:28N 41°11' W 008°42'0 0.0
2017-Nov-23 15:58N 41°11' W 008°42'0 0.0
2017-Nov-23 15:28N 41°11' W 008°42'0 0.0
2017-Nov-23 15:01N 41°11' W 008°42'0 0.0
2017-Nov-23 14:25N 41°11' W 008°42'0 0.0
2017-Nov-23 13:58N 41°11' W 008°42'0 0.0
2017-Nov-23 13:31N 41°11' W 008°42'0 0.0
2017-Nov-23 12:58N 41°11' W 008°42'0 0.0
2017-Nov-23 12:28N 41°11' W 008°42'0 0.0
2017-Nov-23 11:58N 41°11' W 008°42'0 0.0
2017-Nov-23 11:28N 41°11' W 008°42'0 0.0
2017-Nov-23 10:58N 41°11' W 008°42'0 0.0
2017-Nov-23 10:28N 41°11' W 008°42'0 0.0
2017-Nov-23 09:58N 41°11' W 008°42'0 0.0
2017-Nov-23 09:28N 41°11' W 008°42'0 0.0
2017-Nov-23 09:01N 41°11' W 008°42'0 0.0
2017-Nov-23 08:28N 41°11' W 008°42'0 0.0
2017-Nov-23 08:01N 41°11' W 008°42'  
Track history (hours):
 
Tides and Currents Weather Stations Pressure Air Temp Water Temp Dewpoint Dewpoint Depression Visibility Wind Speed Wind Dir Waves Ship Positions

OPDR Tanger

Last reported at 2017-Dec-03 07:53 UTC. Time now 2017-Dec-13 18:58 UTC.
Position N 43°16' E 005°10'.
Warning: this ship's position is 10 days out of date.

Length 130 m; draft 5.4 m.

Type: Ship (hazmat cat A). MMSI: 212818000.

Date/timePositionNaut miles runAvg speedWind from/ knotsBaromVisibWave heightAir tempDewpointWater temp
2017-Dec-03 07:53N 43°16' E 005°10'9 0.2
2017-Dec-01 17:52N 43°21' E 005°20'2 5.2
2017-Dec-01 17:28N 43°21' E 005°17'0 0.2
2017-Dec-01 15:28N 43°21' E 005°17'3 5.2
2017-Dec-01 14:58N 43°19' E 005°14'710.9
2017-Dec-01 14:18N 43°13' E 005°10'440 9.3
2017-Nov-29 14:46N 37°25' W 000°43'413.7
2017-Nov-29 14:30N 37°22' W 000°47'  
2017-Nov-26 00:19N 36°32' W 008°60'11911.7
2017-Nov-25 14:05N 38°22' W 009°59'513.3
2017-Nov-25 13:42N 38°26' W 010°01'179 4.6
2017-Nov-23 23:09N 41°17' W 008°52'315.1
2017-Nov-23 22:58N 41°14' W 008°50'613.4
2017-Nov-23 22:31N 41°10' W 008°45'3 4.7
2017-Nov-23 21:58N 41°11' W 008°42'0 0.0
2017-Nov-23 21:28N 41°11' W 008°42'0 0.0
2017-Nov-23 20:58N 41°11' W 008°42'0 0.0
2017-Nov-23 20:28N 41°11' W 008°42'0 0.0
2017-Nov-23 19:58N 41°11' W 008°42'0 0.0
2017-Nov-23 19:28N 41°11' W 008°42'0 0.0
2017-Nov-23 18:58N 41°11' W 008°42'0 0.0
2017-Nov-23 18:28N 41°11' W 008°42'0 0.0
2017-Nov-23 17:58N 41°11' W 008°42'0 0.0
2017-Nov-23 17:28N 41°11' W 008°42'0 0.0
2017-Nov-23 17:01N 41°11' W 008°42'0 0.0
2017-Nov-23 16:28N 41°11' W 008°42'0 0.0
2017-Nov-23 15:58N 41°11' W 008°42'0 0.0
2017-Nov-23 15:28N 41°11' W 008°42'0 0.0
2017-Nov-23 15:01N 41°11' W 008°42'0 0.0
2017-Nov-23 14:25N 41°11' W 008°42'0 0.0
2017-Nov-23 13:58N 41°11' W 008°42'0 0.0
2017-Nov-23 13:31N 41°11' W 008°42'0 0.0
2017-Nov-23 12:58N 41°11' W 008°42'0 0.0
2017-Nov-23 12:28N 41°11' W 008°42'0 0.0
2017-Nov-23 11:58N 41°11' W 008°42'0 0.0
2017-Nov-23 11:28N 41°11' W 008°42'0 0.0
2017-Nov-23 10:58N 41°11' W 008°42'0 0.0
2017-Nov-23 10:28N 41°11' W 008°42'0 0.0
2017-Nov-23 09:58N 41°11' W 008°42'0 0.0
2017-Nov-23 09:28N 41°11' W 008°42'0 0.0
2017-Nov-23 09:01N 41°11' W 008°42'0 0.0
2017-Nov-23 08:28N 41°11' W 008°42'0 0.0
2017-Nov-23 08:01N 41°11' W 008°42'  

Dump ship's entire track history